TLR weather

Mefford Field
Tulare, California, United States

Public forecast

Using degrees Fahrenheit for public forecast. Weather courtesy of forecast.io.

METAR (pilot weather report)

Closest report is Visalia Municipal Airport, 10.3 nm (19.0 km) NNW. Retrieved 2019/08/17 11:56 UTC (15 minutes ago):

KVIS 171156Z AUTO 13006KT 10SM CLR 19/11 A2976 RMK AO2 SLP078 T01890111 10278 20189 53002

TAF (pilot weather forecast)

Closest forecast is Visalia Municipal Airport, 10.3 nm (19.0 km) NNW. Retrieved 2019/08/17 12:22 UTC (0 seconds ago):

TAF KVIS 171120Z 1712/1812 VRB04KT P6SM SKC FM172300 30007KT P6SM SKC